South Yankton, Nebraska
Current Conditions -  °F | °C
As of 8:15 PM on Thursday 18 Dec 2014 (Local Time) from KYKN Reporting Station
Overcast Overcast  
Wind Chill: 28°   Ceiling: 2200
Heat Index: 28°   Visibility: 8mi
Dew Point: 25°   Wind: 3mph
Humidity: 86%   Direction: 150°SSE
Pressure: 30.19"   Gusts: NA
Location:  42.8189°N, 97.344°W
Report Text: KYKN 190215Z AUTO 15003KT 8SM OVC022 M02/M04 A3019 RMK AO1
Loading
Personal Weather Stations






























Interactive Weather Map New forecast layout! Learn more

10-Day Weather Forecast

Advertisements
Track Severe Weather on mobile